Time;durP1;ratioP1;P1;durP2;ratioP2;P2;SDS_P1;SDS_P2;PMS_P1;PMS_P2;Temp;Humidity;BMP_temperature;BMP_pressure;BME280_temperature;BME280_humidity;BME280_pressure;Samples;Min_cycle;Max_cycle;Signal;HPM_P1;HPM_P2
2021/12/26 00:00:30;;;;;;;3.13;2.30;;;;;;;18.98;40.66;99960.72;4180133;28;20091;-43
2021/12/26 00:02:31;;;;;;;2.50;2.30;;;;;;;18.97;40.44;99950.75;4179884;28;20033;-45
2021/12/26 00:04:34;;;;;;;2.20;2.00;;;;;;;18.99;40.49;99963.19;4180064;28;20037;-48
2021/12/26 00:06:35;;;;;;;2.75;2.45;;;;;;;18.99;40.57;99962.34;4180218;28;20045;-48
2021/12/26 00:08:38;;;;;;;3.28;2.38;;;;;;;18.98;40.22;99963.47;4182176;28;20041;-45
2021/12/26 00:10:41;;;;;;;2.33;1.98;;;;;;;18.96;40.62;99951.84;4183043;28;20049;-50
2021/12/26 00:12:44;;;;;;;2.72;2.40;;;;;;;18.99;40.37;99967.91;4183274;28;20110;-46
2021/12/26 00:14:45;;;;;;;2.55;2.17;;;;;;;18.98;40.63;99967.09;4183383;28;20045;-50
2021/12/26 00:16:47;;;;;;;2.30;1.95;;;;;;;18.98;40.65;99977.34;4183279;28;20472;-45
2021/12/26 00:18:49;;;;;;;2.40;2.20;;;;;;;18.96;40.56;99963.75;4182865;28;20110;-46
2021/12/26 00:20:50;;;;;;;2.20;2.00;;;;;;;18.92;40.40;99943.31;4183122;28;20091;-48
2021/12/26 00:22:57;;;;;;;2.30;1.90;;;;;;;18.97;40.49;99954.34;4183345;28;20468;-45
2021/12/26 00:24:59;;;;;;;2.30;2.10;;;;;;;18.96;40.61;99957.38;4183150;28;20415;-46
2021/12/26 00:27:00;;;;;;;3.17;2.33;;;;;;;18.96;40.37;99958.22;4183343;28;20110;-47
2021/12/26 00:29:05;;;;;;;3.75;2.17;;;;;;;18.96;40.68;99949.06;4182280;28;20044;-44
2021/12/26 00:31:07;;;;;;;2.97;2.45;;;;;;;18.97;40.33;99947.97;4182065;28;20071;-46
2021/12/26 00:33:09;;;;;;;2.40;2.20;;;;;;;18.98;40.68;99949.63;4182846;28;20614;-44
2021/12/26 00:35:13;;;;;;;3.13;2.28;;;;;;;18.93;40.42;99931.09;4182580;28;20094;-49
2021/12/26 00:37:14;;;;;;;2.72;2.45;;;;;;;18.99;40.37;99929.09;4182993;28;20378;-45
2021/12/26 00:39:16;;;;;;;2.83;2.50;;;;;;;18.96;40.64;99924.13;4182265;28;20098;-45
2021/12/26 00:41:17;;;;;;;2.63;2.40;;;;;;;18.95;40.20;99911.38;4182615;28;20095;-46
2021/12/26 00:43:19;;;;;;;3.08;2.30;;;;;;;18.96;40.64;99910.25;4182465;28;20041;-45
2021/12/26 00:45:20;;;;;;;2.28;2.00;;;;;;;18.95;40.44;99906.66;4182852;28;20118;-46
2021/12/26 00:47:22;;;;;;;2.90;2.58;;;;;;;18.97;40.45;99909.16;4180895;28;20103;-45
2021/12/26 00:49:23;;;;;;;2.75;2.25;;;;;;;18.97;40.34;99903.63;4182650;28;20045;-48
2021/12/26 00:51:25;;;;;;;3.08;2.42;;;;;;;18.98;40.66;99894.16;4182754;28;20036;-47
2021/12/26 00:53:29;;;;;;;2.75;2.30;;;;;;;18.98;40.53;99905.25;4182661;28;20075;-44
2021/12/26 00:55:31;;;;;;;2.40;2.20;;;;;;;18.95;40.39;99925.25;4182588;28;20102;-47
2021/12/26 00:57:33;;;;;;;2.38;2.17;;;;;;;18.95;40.25;99931.63;4182564;28;20025;-45
2021/12/26 00:59:34;;;;;;;2.50;2.30;;;;;;;18.95;40.70;99933.56;4182604;28;20100;-45
2021/12/26 01:01:35;;;;;;;2.95;2.55;;;;;;;18.95;40.62;99933.56;4182735;28;20415;-46
2021/12/26 01:03:37;;;;;;;2.83;2.30;;;;;;;18.96;40.36;99937.97;4182553;28;20094;-44
2021/12/26 01:05:41;;;;;;;2.60;2.35;;;;;;;18.95;40.36;99945.47;4182833;28;20456;-48
2021/12/26 01:09:51;;;;;;;2.63;2.40;;;;;;;18.98;40.76;99952.41;4183204;28;20040;-44
2021/12/26 01:11:56;;;;;;;3.40;2.53;;;;;;;18.95;40.51;99937.16;4182488;28;20049;-46
2021/12/26 01:13:58;;;;;;;;;;;;;;;18.92;40.45;99929.44;4182892;28;20372;-49
2021/12/26 01:16:02;;;;;;;2.85;2.55;;;;;;;19.00;40.50;99923.25;4181996;28;19916;-48
2021/12/26 01:18:04;;;;;;;2.73;2.53;;;;;;;18.99;40.19;99924.38;4181730;28;20033;-44
2021/12/26 01:20:13;;;;;;;2.67;2.20;;;;;;;18.98;40.30;99933.00;4181064;28;20443;-44
2021/12/26 01:22:15;;;;;;;3.50;2.38;;;;;;;18.98;40.50;99955.16;4182536;28;20101;-48
2021/12/26 01:24:19;;;;;;;3.38;2.47;;;;;;;18.98;40.33;99955.16;4181960;28;20044;-46
2021/12/26 01:26:22;;;;;;;2.35;2.10;;;;;;;18.97;40.60;99953.53;4181978;28;20041;-48
2021/12/26 01:28:28;;;;;;;4.32;2.92;;;;;;;18.96;40.37;99960.16;4181938;28;20095;-45
2021/12/26 01:30:32;;;;;;;3.28;2.17;;;;;;;18.93;40.53;99958.81;4181729;28;20099;-46
2021/12/26 01:32:33;;;;;;;2.55;2.35;;;;;;;18.94;40.67;99965.19;4182091;28;20036;-45
2021/12/26 01:34:35;;;;;;;3.22;2.67;;;;;;;18.94;40.72;99957.69;4181767;28;20041;-45
2021/12/26 01:36:36;;;;;;;3.55;2.83;;;;;;;18.95;40.47;99966.81;4182085;28;20048;-50
2021/12/26 01:38:38;;;;;;;2.50;2.30;;;;;;;18.93;40.61;99969.91;4180290;28;20045;-45
2021/12/26 01:40:47;;;;;;;3.33;2.33;;;;;;;18.89;40.36;99963.28;4181857;28;20095;-48
2021/12/26 01:42:49;;;;;;;2.53;2.22;;;;;;;18.91;40.54;99961.03;4182248;28;20036;-47
2021/12/26 01:44:50;;;;;;;2.33;2.13;;;;;;;18.93;40.49;99969.91;4181476;28;20103;-46
2021/12/26 01:46:52;;;;;;;4.53;2.80;;;;;;;18.91;40.54;99972.13;4181624;28;20103;-44
2021/12/26 01:49:17;;;;;;;4.28;3.00;;;;;;;18.89;40.66;99968.81;4181403;28;20041;-46
2021/12/26 01:51:18;;;;;;;2.83;2.20;;;;;;;18.92;40.75;99961.84;4181894;28;20099;-49
2021/12/26 01:53:23;;;;;;;2.80;2.38;;;;;;;18.92;40.57;99967.41;4181780;28;20033;-45
2021/12/26 01:55:37;;;;;;;3.03;2.63;;;;;;;18.90;40.84;99969.66;4181843;28;20033;-48
2021/12/26 01:57:39;;;;;;;2.60;2.13;;;;;;;18.93;40.58;99980.16;4179766;28;20037;-44
2021/12/26 01:59:41;;;;;;;2.67;2.13;;;;;;;18.94;40.30;99998.44;4181776;28;20098;-45
2021/12/26 02:01:42;;;;;;;2.97;2.60;;;;;;;18.93;40.56;99974.63;4181388;28;20377;-45
2021/12/26 02:03:44;;;;;;;2.47;2.17;;;;;;;18.90;40.62;99978.78;4181148;28;20083;-46
2021/12/26 02:05:45;;;;;;;2.72;2.35;;;;;;;18.88;40.45;99971.91;4181295;28;20037;-47
2021/12/26 02:07:47;;;;;;;2.78;2.40;;;;;;;18.92;40.70;99972.94;4181497;28;20071;-44
2021/12/26 02:09:48;;;;;;;2.95;2.75;;;;;;;18.89;40.89;99974.38;4180756;28;20029;-48
2021/12/26 02:11:50;;;;;;;3.03;2.58;;;;;;;18.89;40.65;99951.38;4179510;28;20087;-46
2021/12/26 02:13:51;;;;;;;2.88;2.53;;;;;;;18.90;40.66;99948.28;4181480;28;20067;-44
2021/12/26 02:15:53;;;;;;;2.80;2.50;;;;;;;18.91;40.48;99954.66;4181505;28;20036;-46
2021/12/26 02:17:55;;;;;;;2.85;2.55;;;;;;;18.85;40.74;99947.53;4181054;28;20045;-48
2021/12/26 02:20:14;;;;;;;3.65;2.60;;;;;;;18.85;40.61;99961.38;4181360;28;20464;-45
2021/12/26 02:22:23;;;;;;;2.67;2.30;;;;;;;18.93;40.91;99977.41;4180925;28;20053;-47
2021/12/26 02:29:16;;;;;;;2.88;2.20;;;;;;;18.95;40.39;99977.91;4181427;28;20095;-46
2021/12/26 02:31:18;;;;;;;2.67;2.20;;;;;;;18.95;40.42;99977.91;4179641;28;20045;-45
2021/12/26 02:33:20;;;;;;;3.17;2.88;;;;;;;18.94;40.38;99995.69;4181223;28;20044;-49
2021/12/26 02:35:25;;;;;;;2.50;1.98;;;;;;;18.85;40.56;99986.31;4180896;28;20040;-47
2021/12/26 02:37:27;;;;;;;;;;;;;;;18.90;40.52;99994.59;4181337;28;20106;-47
2021/12/26 02:39:31;;;;;;;3.13;2.53;;;;;;;18.98;40.51;99982.88;4181101;28;19958;-44
2021/12/26 02:41:32;;;;;;;3.13;2.60;;;;;;;19.00;40.61;99972.31;4181196;28;20045;-46
2021/12/26 02:43:34;;;;;;;2.30;2.10;;;;;;;18.93;40.55;99992.09;4180164;28;20106;-46
2021/12/26 02:45:36;;;;;;;3.20;2.50;;;;;;;18.95;40.55;100011.19;4181056;28;20091;-45
2021/12/26 02:47:44;;;;;;;2.75;2.55;;;;;;;18.86;40.35;100002.66;4179433;28;20037;-45
2021/12/26 02:49:45;;;;;;;2.60;2.40;;;;;;;18.91;40.55;100026.75;4180983;28;20044;-56
2021/12/26 02:51:48;;;;;;;4.10;2.53;;;;;;;18.88;40.69;100024.56;4181105;28;20468;-46
2021/12/26 02:53:49;;;;;;;2.72;2.33;;;;;;;18.90;40.74;100025.09;4179960;28;20021;-45
2021/12/26 02:55:53;;;;;;;3.03;2.70;;;;;;;18.89;40.64;100021.50;4181024;28;20079;-46
2021/12/26 02:58:00;;;;;;;2.72;2.42;;;;;;;18.90;40.54;100014.00;4180622;28;20037;-48
2021/12/26 03:00:11;;;;;;;2.83;2.40;;;;;;;18.89;40.91;100009.59;4180595;28;20037;-47
2021/12/26 03:02:12;;;;;;;2.92;2.53;;;;;;;18.90;40.42;100014.81;4180402;28;20079;-47
2021/12/26 03:04:14;;;;;;;3.50;2.53;;;;;;;18.90;40.79;100019.53;4180720;28;20033;-46
2021/12/26 03:08:42;;;;;;;2.50;2.28;;;;;;;18.86;40.78;100001.84;4174783;28;20446;-44
2021/12/26 03:10:44;;;;;;;3.67;2.80;;;;;;;18.91;40.94;100023.97;4179026;28;20053;-45
2021/12/26 03:12:45;;;;;;;2.50;2.30;;;;;;;18.92;40.45;100031.16;4180796;28;20075;-45
2021/12/26 03:14:47;;;;;;;2.58;2.38;;;;;;;18.87;40.60;100042.28;4180678;28;20095;-46
2021/12/26 03:16:50;;;;;;;2.97;2.67;;;;;;;18.90;40.82;100052.81;4178094;28;20458;-47
2021/12/26 03:18:56;;;;;;;3.22;2.45;;;;;;;18.89;40.48;100051.16;4178937;28;20033;-46
2021/12/26 03:20:58;;;;;;;5.03;2.47;;;;;;;18.89;40.74;100051.16;4180522;28;20106;-46
2021/12/26 03:23:01;;;;;;;3.25;2.38;;;;;;;18.90;40.44;100052.81;4180726;28;20521;-48
2021/12/26 03:25:05;;;;;;;2.40;2.20;;;;;;;18.87;40.57;100048.66;4180211;28;20041;-48
2021/12/26 03:27:07;;;;;;;2.85;2.55;;;;;;;18.88;40.92;100060.59;4180304;28;20095;-46
2021/12/26 03:29:08;;;;;;;3.15;2.72;;;;;;;18.84;40.70;100063.13;4179873;28;20045;-47
2021/12/26 03:31:10;;;;;;;3.10;2.45;;;;;;;18.87;40.88;100068.06;4180393;28;20041;-48
2021/12/26 03:33:13;;;;;;;2.78;2.58;;;;;;;18.88;40.85;100078.06;4180274;28;20049;-44
2021/12/26 03:35:15;;;;;;;3.22;2.38;;;;;;;18.86;40.61;100080.28;4180605;28;20028;-48
2021/12/26 03:37:18;;;;;;;3.60;2.45;;;;;;;18.85;40.93;100077.81;4180312;28;20443;-47
2021/12/26 03:39:20;;;;;;;3.25;2.20;;;;;;;18.87;40.97;100081.09;4179793;28;20059;-49
2021/12/26 03:41:22;;;;;;;2.65;2.33;;;;;;;18.87;40.73;100081.09;4180533;28;20110;-45
2021/12/26 03:43:24;;;;;;;2.88;2.30;;;;;;;18.87;40.51;100086.66;4183072;28;20037;-46
2021/12/26 03:45:25;;;;;;;3.00;2.58;;;;;;;18.85;40.94;100086.94;4183491;28;20045;-50
2021/12/26 03:47:29;;;;;;;3.45;2.50;;;;;;;18.85;40.76;100092.50;4183750;28;20029;-47
2021/12/26 03:49:31;;;;;;;4.15;2.53;;;;;;;18.88;40.84;100116.03;4183885;28;20397;-46
2021/12/26 03:51:35;;;;;;;2.97;2.42;;;;;;;18.87;40.68;100115.19;4183767;28;20060;-45
2021/12/26 03:53:36;;;;;;;3.22;2.45;;;;;;;18.87;40.50;100109.66;4183267;28;20037;-47
2021/12/26 03:55:39;;;;;;;3.58;2.63;;;;;;;18.90;40.89;100111.03;4183700;28;20029;-43
2021/12/26 03:57:40;;;;;;;3.17;2.58;;;;;;;18.85;40.75;100108.28;4183418;28;20033;-47
2021/12/26 03:59:42;;;;;;;2.70;2.20;;;;;;;18.88;40.53;100113.28;4183789;28;20091;-45
2021/12/26 04:01:43;;;;;;;2.63;2.22;;;;;;;18.90;40.60;100116.56;4183939;28;20087;-45
2021/12/26 04:03:44;;;;;;;3.33;2.60;;;;;;;18.88;40.73;100116.88;4183630;28;20044;-50
2021/12/26 04:05:46;;;;;;;3.20;2.17;;;;;;;18.86;40.71;100119.09;4183727;28;20106;-47
2021/12/26 04:07:48;;;;;;;3.60;2.75;;;;;;;18.85;40.83;100117.44;4183271;28;20032;-46
2021/12/26 04:09:49;;;;;;;3.17;2.38;;;;;;;18.87;40.70;100136.53;4183685;28;20258;-49
2021/12/26 04:11:51;;;;;;;3.35;2.40;;;;;;;18.85;40.71;100127.69;4183364;28;20090;-46
2021/12/26 04:13:52;;;;;;;3.17;2.50;;;;;;;18.87;40.97;100131.00;4183770;28;20474;-46
2021/12/26 04:15:53;;;;;;;2.90;2.35;;;;;;;18.86;40.79;100134.88;4183409;28;20087;-48
2021/12/26 04:17:57;;;;;;;2.60;2.38;;;;;;;18.87;40.52;100136.53;4183251;28;20407;-45
2021/12/26 04:19:58;;;;;;;4.70;2.58;;;;;;;18.88;40.83;100143.78;4183446;28;20045;-48
2021/12/26 04:22:00;;;;;;;2.58;2.20;;;;;;;18.88;40.82;100149.31;4183541;28;20094;-46
2021/12/26 04:24:03;;;;;;;3.47;2.70;;;;;;;18.87;40.74;100148.47;4183474;28;20159;-49
2021/12/26 04:26:04;;;;;;;2.78;2.25;;;;;;;18.88;40.93;100154.84;4183306;28;20091;-44
2021/12/26 04:28:09;;;;;;;3.55;2.67;;;;;;;18.88;40.63;100163.16;4183035;28;20115;-45
2021/12/26 04:30:13;;;;;;;2.78;2.42;;;;;;;18.88;40.76;100171.50;4183300;28;20086;-47
2021/12/26 04:32:14;;;;;;;3.10;2.60;;;;;;;18.83;41.03;100175.13;4182905;28;20041;-48
2021/12/26 04:34:16;;;;;;;2.28;1.98;;;;;;;18.85;41.08;100177.59;4181944;28;20075;-46
2021/12/26 04:36:18;;;;;;;2.95;2.33;;;;;;;18.86;40.65;100179.25;4182880;28;20041;-45
2021/12/26 04:38:21;;;;;;;2.92;2.33;;;;;;;18.85;40.99;100183.13;4181339;28;20044;-49
2021/12/26 04:40:22;;;;;;;3.25;2.72;;;;;;;18.85;41.03;100183.13;4183353;28;20033;-46
2021/12/26 04:42:24;;;;;;;2.65;2.03;;;;;;;18.87;40.67;100186.44;4181843;28;20041;-44
2021/12/26 04:44:27;;;;;;;2.88;2.33;;;;;;;18.78;40.99;100173.19;4182323;28;20049;-45
2021/12/26 04:46:28;;;;;;;2.65;2.22;;;;;;;18.86;40.99;100193.09;4181905;28;20033;-47
2021/12/26 04:48:29;;;;;;;3.00;2.42;;;;;;;18.87;40.86;100197.53;4182796;28;20525;-44
2021/12/26 04:50:31;;;;;;;2.85;2.40;;;;;;;18.83;41.02;100196.44;4182534;28;20114;-45
2021/12/26 04:52:32;;;;;;;3.03;2.58;;;;;;;18.88;41.09;100199.22;4183331;28;20041;-46
2021/12/26 04:54:34;;;;;;;2.95;2.28;;;;;;;18.86;40.90;100201.41;4182746;28;20074;-46
2021/12/26 04:56:35;;;;;;;3.13;2.60;;;;;;;18.85;40.86;100200.59;4182508;28;20163;-45
2021/12/26 04:58:40;;;;;;;2.97;2.53;;;;;;;18.84;40.90;100200.88;4182429;28;20067;-46
2021/12/26 05:00:41;;;;;;;3.15;2.53;;;;;;;18.83;41.07;100211.16;4183024;28;20087;-47
2021/12/26 05:02:44;;;;;;;2.88;2.58;;;;;;;18.84;40.92;100223.06;4182839;28;20037;-43
2021/12/26 05:04:46;;;;;;;3.13;2.60;;;;;;;18.86;40.68;100223.59;4182840;28;20082;-47
2021/12/26 05:06:48;;;;;;;2.65;2.20;;;;;;;18.83;40.98;100225.00;4182706;28;20091;-46
2021/12/26 05:08:50;;;;;;;3.20;2.78;;;;;;;18.84;40.80;100225.84;4182002;28;20037;-44
2021/12/26 05:10:51;;;;;;;2.45;2.25;;;;;;;18.86;40.93;100232.75;4182804;28;20033;-44
2021/12/26 05:12:53;;;;;;;2.38;2.15;;;;;;;18.87;41.12;100245.47;4181170;28;20048;-45
2021/12/26 05:14:54;;;;;;;3.00;2.63;;;;;;;18.85;40.89;100242.19;4182696;28;20469;-48
2021/12/26 05:16:59;;;;;;;3.03;2.50;;;;;;;18.87;41.08;100245.47;4182751;28;20025;-45
2021/12/26 05:19:00;;;;;;;2.40;2.20;;;;;;;18.87;41.04;100252.97;4181910;28;20122;-45
2021/12/26 05:21:02;;;;;;;2.55;2.20;;;;;;;18.85;40.74;100257.97;4182428;28;20102;-45
2021/12/26 05:23:04;;;;;;;3.55;2.88;;;;;;;18.83;41.17;100276.81;4182694;28;20456;-45
2021/12/26 05:25:09;;;;;;;3.00;2.50;;;;;;;18.84;41.00;100282.09;4182459;28;20041;-45
2021/12/26 05:27:10;;;;;;;2.63;2.35;;;;;;;18.85;40.79;100292.06;4182380;28;20110;-47
2021/12/26 05:29:11;;;;;;;2.65;2.45;;;;;;;18.84;41.14;100292.38;4181889;28;20033;-44
2021/12/26 05:31:13;;;;;;;3.00;2.70;;;;;;;18.86;40.71;100292.91;4180966;28;20040;-45
2021/12/26 05:33:14;;;;;;;3.08;2.30;;;;;;;18.84;41.04;100303.47;4182678;28;20554;-44
2021/12/26 05:35:18;;;;;;;2.65;2.30;;;;;;;18.85;41.22;100294.03;4182456;28;20033;-44
2021/12/26 05:37:19;;;;;;;2.72;2.28;;;;;;;18.85;40.71;100294.03;4182415;28;20025;-45
2021/12/26 05:39:23;;;;;;;2.78;2.45;;;;;;;18.85;41.04;100300.38;4181870;28;20041;-47
2021/12/26 05:41:24;;;;;;;3.03;2.50;;;;;;;18.85;41.13;100305.09;4182229;28;20037;-50
2021/12/26 05:43:26;;;;;;;2.75;2.28;;;;;;;18.84;40.85;100301.50;4182153;28;20094;-48
2021/12/26 05:45:30;;;;;;;3.38;2.58;;;;;;;18.81;41.01;100304.00;4182346;28;20082;-45
2021/12/26 05:47:32;;;;;;;2.78;2.28;;;;;;;18.74;40.92;100294.06;4181767;28;20411;-45
2021/12/26 05:49:33;;;;;;;2.40;2.20;;;;;;;18.84;41.16;100309.00;4181894;28;20094;-46
2021/12/26 05:51:35;;;;;;;2.75;2.42;;;;;;;18.83;40.80;100307.31;4181786;28;20048;-46
2021/12/26 05:53:36;;;;;;;3.83;2.55;;;;;;;18.81;41.09;100304.00;4181977;28;20395;-45
2021/12/26 05:55:38;;;;;;;2.45;2.10;;;;;;;18.81;41.20;100299.28;4181499;28;20041;-44
2021/12/26 05:57:42;;;;;;;2.55;2.35;;;;;;;18.84;41.18;100303.47;4181247;28;20033;-49
2021/12/26 05:59:44;;;;;;;3.80;2.20;;;;;;;18.81;40.87;100298.47;4181834;28;20477;-47
2021/12/26 06:01:45;;;;;;;3.05;2.35;;;;;;;18.83;41.23;100305.41;4181697;28;20549;-48
2021/12/26 06:03:47;;;;;;;2.15;1.95;;;;;;;18.85;40.76;100305.09;4181487;28;20106;-45
2021/12/26 06:05:48;;;;;;;2.38;2.03;;;;;;;18.84;41.10;100303.47;4181350;28;20071;-47
2021/12/26 06:07:53;;;;;;;2.53;2.33;;;;;;;18.61;40.86;100277.16;4179664;28;20041;-49
2021/12/26 06:09:54;;;;;;;3.03;2.15;;;;;;;18.82;41.02;100323.13;4181869;28;20036;-45
2021/12/26 06:11:56;;;;;;;2.85;2.17;;;;;;;18.82;41.04;100311.22;4181465;28;20476;-47
2021/12/26 06:13:57;;;;;;;3.42;2.60;;;;;;;18.82;40.76;100322.28;4181995;28;20075;-47
2021/12/26 06:16:00;;;;;;;2.53;2.25;;;;;;;18.83;40.95;100335.03;4181499;28;20037;-48
2021/12/26 06:18:04;;;;;;;2.55;2.35;;;;;;;18.83;40.85;100323.94;4181397;28;20051;-47
2021/12/26 06:20:13;;;;;;;3.05;2.13;;;;;;;18.81;40.84;100332.56;4180410;28;20059;-44
2021/12/26 06:22:17;;;;;;;2.42;2.17;;;;;;;18.83;40.83;100324.81;4179629;28;20045;-48
2021/12/26 06:24:19;;;;;;;2.75;2.20;;;;;;;18.84;40.85;100328.41;4180434;28;20040;-47
2021/12/26 06:26:22;;;;;;;2.97;2.35;;;;;;;18.82;41.01;100339.75;4180349;28;20071;-46
2021/12/26 06:28:24;;;;;;;2.45;1.80;;;;;;;18.81;41.30;100342.81;4179873;28;20041;-48
2021/12/26 06:30:25;;;;;;;2.67;2.20;;;;;;;18.82;41.15;100333.38;4180695;28;20075;-49
2021/12/26 06:32:26;;;;;;;2.45;2.25;;;;;;;18.79;40.78;100349.47;4180579;28;20037;-46
2021/12/26 06:34:28;;;;;;;2.40;2.20;;;;;;;18.79;40.94;100357.78;4180326;28;20037;-45
2021/12/26 06:36:29;;;;;;;2.63;2.08;;;;;;;18.79;41.05;100363.34;4180645;28;20037;-45
2021/12/26 06:38:34;;;;;;;3.03;2.40;;;;;;;18.79;41.17;100368.88;4180355;28;20476;-45
2021/12/26 06:40:35;;;;;;;3.05;2.53;;;;;;;18.81;41.02;100381.63;4180187;28;20490;-45
2021/12/26 06:42:45;;;;;;;2.63;2.35;;;;;;;18.78;40.78;100380.22;4180728;28;20518;-49
2021/12/26 06:44:46;;;;;;;3.97;2.22;;;;;;;18.79;40.97;100385.50;4180619;28;20063;-45
2021/12/26 06:46:48;;;;;;;2.25;2.00;;;;;;;18.78;41.18;100389.41;4180511;28;20538;-47
2021/12/26 06:48:49;;;;;;;3.13;2.17;;;;;;;18.81;41.19;100388.00;4179341;28;20037;-47
2021/12/26 06:50:53;;;;;;;2.63;2.17;;;;;;;18.81;41.08;100387.16;4180124;28;20037;-42
2021/12/26 06:52:55;;;;;;;2.20;2.00;;;;;;;18.81;41.05;100392.72;4180491;28;20045;-44
2021/12/26 06:54:57;;;;;;;2.67;1.90;;;;;;;18.80;41.01;100402.97;4180374;28;20049;-45
2021/12/26 06:57:01;;;;;;;2.65;2.30;;;;;;;18.81;41.03;100410.16;4179879;28;20041;-50
2021/12/26 06:59:02;;;;;;;2.03;1.83;;;;;;;18.82;40.96;100411.81;4180212;28;20025;-44
2021/12/26 07:01:04;;;;;;;3.13;2.35;;;;;;;18.81;41.13;100403.81;4180445;28;20178;-49
2021/12/26 07:03:05;;;;;;;3.67;2.15;;;;;;;18.79;41.14;100418.78;4180366;28;20041;-46
2021/12/26 07:05:07;;;;;;;2.28;1.80;;;;;;;18.83;40.80;100426.50;4180461;28;20094;-50
2021/12/26 07:07:08;;;;;;;2.65;2.40;;;;;;;18.82;40.96;100427.63;4180449;28;20367;-49
2021/12/26 07:09:10;;;;;;;2.95;2.22;;;;;;;18.81;41.03;100428.75;4178289;28;20045;-47
2021/12/26 07:11:11;;;;;;;2.30;2.08;;;;;;;18.79;41.09;100424.31;4180142;28;20052;-49
2021/12/26 07:13:13;;;;;;;3.65;2.30;;;;;;;18.79;40.82;100415.19;4180477;28;20041;-48
2021/12/26 07:15:15;;;;;;;3.15;2.30;;;;;;;18.78;41.19;100428.22;4179818;28;20106;-47
2021/12/26 07:17:16;;;;;;;2.75;2.10;;;;;;;18.77;40.94;100432.06;4179053;28;20460;-44
2021/12/26 07:19:18;;;;;;;3.03;2.22;;;;;;;18.80;41.10;100452.88;4179895;28;20045;-51
2021/12/26 07:21:20;;;;;;;2.00;1.80;;;;;;;18.77;41.20;100448.69;4110916;28;1991999;-45
2021/12/26 07:23:21;;;;;;;3.13;2.10;;;;;;;18.79;40.94;100456.75;4181034;28;20052;-46
2021/12/26 07:25:22;;;;;;;3.72;2.30;;;;;;;18.79;41.17;100463.13;4163076;28;20033;-47
2021/12/26 07:27:24;;;;;;;2.97;2.08;;;;;;;18.72;41.23;100456.19;4180540;28;20099;-45
2021/12/26 07:29:25;;;;;;;2.22;2.00;;;;;;;18.82;40.85;100477.53;4180926;28;20435;-46
2021/12/26 07:31:28;;;;;;;2.47;2.28;;;;;;;18.80;41.12;100486.13;4180815;28;20041;-45
2021/12/26 07:33:29;;;;;;;2.47;2.03;;;;;;;18.80;40.82;100491.69;4178578;28;20045;-45
2021/12/26 07:35:31;;;;;;;2.47;2.00;;;;;;;18.79;41.18;100495.56;4180414;28;20314;-45
2021/12/26 07:37:32;;;;;;;2.05;1.83;;;;;;;18.79;41.09;100501.09;4180289;28;20037;-48
2021/12/26 07:39:34;;;;;;;2.55;2.15;;;;;;;18.75;41.05;100500.81;4180624;28;20045;-48
2021/12/26 07:41:36;;;;;;;2.28;2.08;;;;;;;18.77;41.23;100504.13;4180669;28;20049;-45
2021/12/26 07:43:37;;;;;;;2.15;1.95;;;;;;;18.71;41.08;100498.88;4180733;28;20094;-50
2021/12/26 07:45:39;;;;;;;2.40;2.20;;;;;;;18.78;40.87;100519.69;4180697;28;20087;-47
2021/12/26 07:47:41;;;;;;;2.10;1.90;;;;;;;18.77;41.21;100526.31;4178607;28;20032;-43
2021/12/26 07:49:42;;;;;;;2.33;2.13;;;;;;;18.77;41.33;100526.31;4180682;28;20025;-45
2021/12/26 07:51:45;;;;;;;2.92;2.40;;;;;;;18.71;40.86;100513.56;4180202;28;20090;-46
2021/12/26 07:53:48;;;;;;;3.05;2.28;;;;;;;18.78;40.92;100528.00;4180467;28;20558;-47
2021/12/26 07:55:50;;;;;;;2.53;2.10;;;;;;;18.77;41.32;100522.72;4180395;28;20365;-46
2021/12/26 07:57:54;;;;;;;2.10;1.90;;;;;;;18.77;41.08;100520.78;4180194;28;20025;-48
2021/12/26 07:59:55;;;;;;;2.65;1.95;;;;;;;18.78;41.05;100516.91;4180464;28;20045;-47
2021/12/26 08:01:57;;;;;;;2.45;2.05;;;;;;;18.80;41.14;100522.16;4180545;28;20468;-44
2021/12/26 08:04:01;;;;;;;2.90;2.20;;;;;;;18.79;41.03;100526.88;4180479;28;20041;-47
2021/12/26 08:06:03;;;;;;;1.92;1.73;;;;;;;18.85;41.00;100532.44;4180655;28;20407;-53
2021/12/26 08:08:04;;;;;;;2.17;1.92;;;;;;;18.88;40.65;100526.34;4179946;28;20054;-46
2021/12/26 08:10:07;;;;;;;3.38;2.45;;;;;;;18.91;40.70;100537.69;4180442;28;20049;-46
2021/12/26 08:12:09;;;;;;;2.28;1.80;;;;;;;18.93;40.69;100545.75;4179919;28;20102;-49
2021/12/26 08:14:10;;;;;;;2.38;1.85;;;;;;;18.93;41.00;100552.13;4180077;28;20094;-46
2021/12/26 08:16:12;;;;;;;2.22;2.00;;;;;;;18.94;41.04;100547.41;4180469;28;20075;-45
2021/12/26 08:18:13;;;;;;;2.17;1.80;;;;;;;18.97;40.71;100550.47;4180156;28;20090;-46
2021/12/26 08:20:15;;;;;;;2.03;1.83;;;;;;;18.98;41.04;100548.50;4180275;28;20103;-45
2021/12/26 08:22:16;;;;;;;2.50;2.10;;;;;;;18.99;40.98;100547.41;4179334;28;20524;-45
2021/12/26 08:24:18;;;;;;;2.30;1.92;;;;;;;19.02;40.96;100552.41;4180449;28;20093;-48
2021/12/26 08:26:20;;;;;;;2.22;1.73;;;;;;;19.03;40.83;100556.84;4170244;28;20046;-44
2021/12/26 08:28:21;;;;;;;2.38;2.00;;;;;;;19.06;40.89;100559.06;4164302;28;20029;-46
2021/12/26 08:30:24;;;;;;;3.78;2.00;;;;;;;19.07;41.25;100571.81;4167043;28;20350;-46
2021/12/26 08:32:26;;;;;;;2.28;1.83;;;;;;;19.09;41.07;100589.00;4166329;28;20436;-46
2021/12/26 08:34:28;;;;;;;2.13;1.77;;;;;;;19.10;41.36;100590.66;4166727;28;20030;-48
2021/12/26 08:36:29;;;;;;;2.25;1.60;;;;;;;19.11;40.91;100591.50;4166658;28;20045;-46
2021/12/26 08:38:31;;;;;;;2.67;2.03;;;;;;;19.12;41.43;100585.69;4164913;28;20042;-46
2021/12/26 08:40:32;;;;;;;2.50;1.98;;;;;;;19.13;41.64;100587.34;4166874;28;20042;-44
2021/12/26 08:42:34;;;;;;;1.90;1.70;;;;;;;19.11;41.60;100578.47;4182958;28;20368;-46
2021/12/26 08:44:36;;;;;;;2.53;1.80;;;;;;;19.16;41.70;100592.34;4182333;28;20090;-45
2021/12/26 08:46:38;;;;;;;2.70;2.05;;;;;;;19.17;41.75;100593.16;4181338;28;20041;-48
2021/12/26 08:48:40;;;;;;;2.83;1.88;;;;;;;19.18;41.66;100590.09;4181087;28;20041;-45
2021/12/26 08:50:42;;;;;;;1.80;1.67;;;;;;;19.20;41.66;100584.28;4182120;28;20106;-45
2021/12/26 08:52:44;;;;;;;1.98;1.50;;;;;;;19.21;41.51;100592.31;4181583;28;20396;-47
2021/12/26 08:54:45;;;;;;;2.00;1.70;;;;;;;19.17;41.58;100594.00;4182269;28;20037;-48
2021/12/26 08:56:47;;;;;;;2.10;1.90;;;;;;;19.19;41.59;100594.53;4182496;28;20118;-46
2021/12/26 08:58:51;;;;;;;1.73;1.63;;;;;;;19.24;41.53;100605.66;4167430;28;20045;-46
2021/12/26 09:00:53;;;;;;;1.70;1.50;;;;;;;19.24;41.64;100597.34;4166002;28;20045;-46
2021/12/26 09:02:55;;;;;;;2.55;1.50;;;;;;;19.26;41.40;100605.38;4165682;28;20266;-45
2021/12/26 09:04:56;;;;;;;1.95;1.65;;;;;;;19.29;41.64;100600.09;4165762;28;20037;-47
2021/12/26 09:06:58;;;;;;;2.03;1.83;;;;;;;19.30;41.44;100601.75;4165679;28;20076;-44
2021/12/26 09:08:59;;;;;;;2.08;1.88;;;;;;;19.32;41.74;100608.97;4165788;28;20092;-45
2021/12/26 09:11:01;;;;;;;2.25;1.80;;;;;;;19.31;41.68;100608.13;4164396;28;20908;-45
2021/12/26 09:13:02;;;;;;;1.50;1.40;;;;;;;19.34;41.54;100609.53;4166461;28;20443;-44
2021/12/26 09:15:07;;;;;;;3.17;1.63;;;;;;;19.35;41.80;100614.78;4166275;28;20041;-46
2021/12/26 09:17:09;;;;;;;1.25;1.15;;;;;;;19.37;41.63;100622.84;4166080;28;20091;-47
2021/12/26 09:19:10;;;;;;;1.90;1.75;;;;;;;19.39;41.84;100621.47;4164078;28;20029;-46
2021/12/26 09:21:12;;;;;;;2.25;1.83;;;;;;;19.40;41.64;100631.44;4164872;28;20091;-46
2021/12/26 09:23:13;;;;;;;1.90;1.70;;;;;;;19.41;41.60;100640.59;4165528;28;20038;-50
2021/12/26 09:25:15;;;;;;;2.38;1.80;;;;;;;19.42;41.74;100648.63;4179547;28;20071;-47
2021/12/26 09:27:19;;;;;;;1.75;1.65;;;;;;;19.44;41.43;100657.53;4165431;28;20037;-47
2021/12/26 09:29:22;;;;;;;1.60;1.50;;;;;;;19.44;41.76;100673.34;4165959;28;20042;-48
2021/12/26 09:31:24;;;;;;;1.92;1.73;;;;;;;19.45;41.83;100686.94;4164939;28;20034;-47
2021/12/26 09:33:28;;;;;;;1.60;1.50;;;;;;;19.47;41.77;100695.84;4165363;28;20103;-46
2021/12/26 09:35:30;;;;;;;1.60;1.40;;;;;;;19.48;41.67;100713.31;4164858;28;20041;-46
2021/12/26 09:37:32;;;;;;;1.35;1.25;;;;;;;19.48;41.48;100708.59;4164673;28;20068;-45
2021/12/26 09:39:34;;;;;;;2.00;1.55;;;;;;;19.50;41.61;100723.00;4164268;28;20041;-44